Time;durP1;ratioP1;P1;durP2;ratioP2;P2;SDS_P1;SDS_P2;PMS_P1;PMS_P2;Temp;Humidity;BMP_temperature;BMP_pressure;BME280_temperature;BME280_humidity;BME280_pressure;Samples;Min_cycle;Max_cycle;Signal;HPM_P1;HPM_P2
2021/01/18 00:00:25;;;;;;;7.50;5.93;;;;;;;3.44;74.27;97272.59;5057410;28;20191;-69
2021/01/18 00:02:51;;;;;;;9.83;6.80;;;;;;;3.43;73.87;97268.34;5060848;28;20205;-69
2021/01/18 00:05:16;;;;;;;7.23;6.13;;;;;;;3.39;74.29;97282.44;5072174;28;20420;-69
2021/01/18 00:07:48;;;;;;;10.97;7.10;;;;;;;3.43;74.00;97276.09;5070577;28;20213;-69
2021/01/18 00:10:16;;;;;;;12.70;6.57;;;;;;;3.65;73.38;97274.63;5070637;28;20171;-68
2021/01/18 00:12:46;;;;;;;10.33;6.70;;;;;;;3.54;73.69;97275.38;5071852;28;20470;-69
2021/01/18 00:15:13;;;;;;;10.23;6.67;;;;;;;3.66;73.51;97271.09;5064091;28;20505;-68
2021/01/18 00:17:38;;;;;;;16.63;7.30;;;;;;;3.39;74.01;97274.69;5071529;28;20421;-69
2021/01/18 00:20:05;;;;;;;9.50;6.97;;;;;;;3.32;74.35;97283.78;5069550;28;20417;-68
2021/01/18 00:22:31;;;;;;;9.63;6.60;;;;;;;3.72;73.20;97273.25;5070773;28;20243;-68
2021/01/18 00:24:57;;;;;;;13.03;6.57;;;;;;;3.65;73.67;97269.47;5070225;28;21039;-69
2021/01/18 00:27:22;;;;;;;9.63;6.47;;;;;;;3.55;73.53;97271.84;5068754;28;20273;-68
2021/01/18 00:29:48;;;;;;;10.43;6.60;;;;;;;3.71;72.95;97271.59;5065724;28;20202;-69
2021/01/18 00:32:15;;;;;;;10.67;6.93;;;;;;;3.27;74.06;97273.75;5071064;28;20224;-69
2021/01/18 00:34:41;;;;;;;11.17;6.90;;;;;;;3.62;73.38;97261.88;5071321;28;20182;-68
2021/01/18 00:37:07;;;;;;;9.07;6.57;;;;;;;3.39;73.93;97269.50;5072795;28;20420;-70
2021/01/18 00:39:32;;;;;;;10.10;6.47;;;;;;;3.17;74.53;97273.53;5072880;28;20178;-69
2021/01/18 00:41:58;;;;;;;14.03;6.50;;;;;;;3.53;73.69;97266.75;5075074;28;20206;-68
2021/01/18 00:44:23;;;;;;;14.03;6.73;;;;;;;3.78;72.73;97262.44;5075486;28;20259;-69
2021/01/18 00:46:49;;;;;;;9.60;6.40;;;;;;;3.66;73.15;97263.31;5075342;28;20194;-68
2021/01/18 00:49:15;;;;;;;6.83;5.83;;;;;;;3.53;73.46;97258.97;5074302;28;20182;-68
2021/01/18 00:51:41;;;;;;;7.60;5.70;;;;;;;3.45;73.81;97257.88;5073768;28;20198;-68
2021/01/18 00:54:06;;;;;;;9.37;6.87;;;;;;;3.33;73.49;97252.63;5075504;28;20174;-69
2021/01/18 00:56:32;;;;;;;10.03;6.07;;;;;;;3.19;74.26;97260.50;5075917;28;20190;-69
2021/01/18 00:58:58;;;;;;;7.43;5.57;;;;;;;3.34;73.95;97253.44;5068655;28;20190;-70
2021/01/18 01:01:24;;;;;;;10.03;6.30;;;;;;;3.19;74.33;97261.31;5077514;28;20210;-69
2021/01/18 01:04:28;;;;;;;11.97;6.90;;;;;;;3.39;73.84;97256.53;5063938;28;20694;-70
2021/01/18 01:06:54;;;;;;;7.80;5.50;;;;;;;3.18;74.71;97259.66;5035181;28;20215;-70
2021/01/18 01:09:19;;;;;;;11.40;6.10;;;;;;;2.96;75.41;97262.03;5048240;28;20456;-68
2021/01/18 01:11:46;;;;;;;9.57;6.23;;;;;;;3.40;73.90;97262.53;5047731;28;20218;-69
2021/01/18 01:17:47;;;;;;;9.87;6.10;;;;;;;3.29;74.05;97271.03;5049565;28;20505;-69
2021/01/18 01:20:14;;;;;;;8.63;5.70;;;;;;;3.14;74.78;97268.59;5060164;28;20412;-69
2021/01/18 01:22:40;;;;;;;9.07;5.90;;;;;;;3.43;74.14;97262.34;5057518;28;20453;-70
2021/01/18 01:25:07;;;;;;;9.53;5.73;;;;;;;3.62;73.40;97262.69;5054380;28;20813;-69
2021/01/18 01:27:33;;;;;;;8.33;5.60;;;;;;;3.15;74.34;97266.81;5060496;28;20435;-69
2021/01/18 01:29:59;;;;;;;8.80;5.73;;;;;;;3.17;74.34;97273.53;5071860;28;20425;-69
2021/01/18 01:32:25;;;;;;;8.13;5.23;;;;;;;3.31;74.16;97269.19;5062736;28;20441;-69
2021/01/18 01:34:51;;;;;;;8.80;5.17;;;;;;;3.34;74.26;97263.78;5054001;28;20191;-69
2021/01/18 01:37:17;;;;;;;7.70;4.87;;;;;;;2.99;74.53;97270.44;5053763;28;20490;-70
2021/01/18 01:39:42;;;;;;;8.27;5.70;;;;;;;3.32;74.03;97263.91;5053896;28;20187;-70
2021/01/18 01:42:18;;;;;;;6.70;4.77;;;;;;;3.19;74.40;97271.69;5065446;28;20285;-69
2021/01/18 01:44:44;;;;;;;7.70;4.93;;;;;;;3.21;74.41;97285.34;5057530;28;20194;-69
2021/01/18 01:47:10;;;;;;;8.33;4.83;;;;;;;3.51;73.63;97279.03;5062600;28;20501;-69
2021/01/18 01:49:36;;;;;;;8.60;5.93;;;;;;;3.14;75.30;97297.06;5054047;28;20650;-70
2021/01/18 01:52:03;;;;;;;5.73;4.90;;;;;;;3.61;73.15;97281.78;5053501;28;20438;-69
2021/01/18 01:54:31;;;;;;;7.07;5.13;;;;;;;3.62;73.73;97285.22;5053750;28;20183;-69
2021/01/18 01:56:57;;;;;;;6.80;5.33;;;;;;;3.57;72.75;97290.72;5060774;28;20414;-69
2021/01/18 01:59:23;;;;;;;7.40;5.77;;;;;;;3.36;73.30;97295.63;5053668;28;20448;-69
2021/01/18 02:01:49;;;;;;;9.80;5.43;;;;;;;3.18;74.23;97295.91;5054743;28;20441;-69
2021/01/18 02:04:15;;;;;;;8.37;5.57;;;;;;;3.38;73.89;97291.97;5059555;28;20183;-69
2021/01/18 02:06:41;;;;;;;7.73;5.43;;;;;;;3.62;73.41;97282.63;5054052;28;20219;-68
2021/01/18 02:09:06;;;;;;;9.20;5.53;;;;;;;3.61;73.02;97286.16;5055317;28;20445;-70
2021/01/18 02:11:32;;;;;;;7.03;5.20;;;;;;;3.60;72.94;97287.91;5058940;28;20452;-70
2021/01/18 02:14:28;;;;;;;7.93;5.20;;;;;;;3.67;73.03;97291.72;5053633;28;20176;-70
2021/01/18 02:16:59;;;;;;;6.40;5.30;;;;;;;4.02;71.80;97302.31;5052043;28;20247;-69
2021/01/18 02:19:56;;;;;;;7.73;4.83;;;;;;;3.93;72.20;97301.19;5049236;28;20425;-70
2021/01/18 02:22:31;;;;;;;9.40;4.80;;;;;;;3.64;72.44;97301.50;5067125;28;20547;-70
2021/01/18 02:25:00;;;;;;;7.90;5.70;;;;;;;3.26;73.41;97312.72;5053046;28;20764;-69
2021/01/18 02:27:44;;;;;;;4.97;4.00;;;;;;;3.86;72.47;97305.16;5058081;28;20475;-70
2021/01/18 02:30:19;;;;;;;6.97;5.20;;;;;;;4.11;71.13;97307.69;5068660;28;20509;-70
2021/01/18 02:33:02;;;;;;;7.07;5.57;;;;;;;4.28;70.43;97310.84;5055571;28;20434;-70
2021/01/18 02:35:55;;;;;;;10.93;5.10;;;;;;;3.47;73.52;97313.00;5053415;28;20452;-70
2021/01/18 02:38:27;;;;;;;6.27;5.23;;;;;;;3.56;72.78;97319.31;5045086;28;20424;-68
2021/01/18 02:41:08;;;;;;;4.90;4.40;;;;;;;4.03;71.57;97322.13;5051685;28;20436;-69
2021/01/18 02:43:42;;;;;;;5.93;5.00;;;;;;;3.81;71.57;97327.06;5051750;28;20464;-68
2021/01/18 02:46:08;;;;;;;10.43;6.00;;;;;;;3.71;72.10;97333.81;5051830;28;20421;-69
2021/01/18 02:48:35;;;;;;;5.50;4.70;;;;;;;3.88;71.29;97330.06;5055067;28;20477;-68
2021/01/18 02:51:03;;;;;;;8.73;5.10;;;;;;;3.74;72.12;97323.25;5061015;28;20420;-69
2021/01/18 02:53:29;;;;;;;7.00;5.60;;;;;;;3.48;73.08;97322.44;5058239;28;20456;-69
2021/01/18 02:55:55;;;;;;;6.90;5.10;;;;;;;3.47;72.43;97323.38;5052759;28;20422;-69
2021/01/18 02:58:23;;;;;;;6.77;5.70;;;;;;;3.48;73.37;97322.44;5052479;28;20190;-68
2021/01/18 03:01:15;;;;;;;8.10;5.67;;;;;;;3.29;73.99;97322.84;5052005;28;20213;-70
2021/01/18 03:03:52;;;;;;;11.10;6.33;;;;;;;3.48;72.74;97322.44;5046953;28;20526;-69
2021/01/18 03:06:30;;;;;;;10.40;6.43;;;;;;;3.43;73.15;97317.56;5040016;28;20483;-69
2021/01/18 03:09:03;;;;;;;9.63;7.13;;;;;;;3.09;74.50;97321.63;5034512;28;20430;-68
2021/01/18 03:11:34;;;;;;;13.97;7.87;;;;;;;2.89;74.89;97318.59;5051594;28;20449;-70
2021/01/18 03:14:09;;;;;;;12.70;7.63;;;;;;;3.10;74.63;97323.25;5041050;28;20430;-69
2021/01/18 03:16:38;;;;;;;11.63;7.53;;;;;;;3.16;74.25;97326.28;5052809;28;20413;-69
2021/01/18 03:19:04;;;;;;;15.87;7.73;;;;;;;2.90;75.10;97315.88;5042639;28;20562;-69
2021/01/18 03:21:30;;;;;;;11.40;7.83;;;;;;;3.21;74.36;97308.66;5051267;28;20437;-69
2021/01/18 03:23:56;;;;;;;14.90;8.63;;;;;;;2.94;74.96;97311.34;5052159;28;20596;-69
2021/01/18 03:26:26;;;;;;;11.83;7.97;;;;;;;2.87;75.27;97318.69;5035002;28;20509;-69
2021/01/18 03:28:53;;;;;;;13.67;8.40;;;;;;;3.09;74.30;97325.03;5053480;28;20617;-69
2021/01/18 03:31:19;;;;;;;14.13;8.23;;;;;;;3.07;74.59;97326.91;5053402;28;20414;-69
2021/01/18 03:33:45;;;;;;;16.97;9.20;;;;;;;3.21;74.22;97329.41;5052251;28;20575;-70
2021/01/18 03:36:10;;;;;;;13.33;8.80;;;;;;;3.19;74.11;97320.06;5047799;28;20175;-69
2021/01/18 03:38:36;;;;;;;15.63;7.90;;;;;;;2.95;74.14;97322.53;5063261;28;20501;-68
2021/01/18 03:41:02;;;;;;;14.77;9.10;;;;;;;2.94;75.46;97324.31;5072446;28;20774;-69
2021/01/18 03:43:28;;;;;;;17.07;9.00;;;;;;;2.87;75.21;97317.84;5072251;28;20218;-69
2021/01/18 03:45:54;;;;;;;16.40;8.33;;;;;;;2.85;75.84;97322.28;5072325;28;20431;-69
2021/01/18 03:48:20;;;;;;;14.70;8.17;;;;;;;2.62;75.95;97316.88;5066803;28;20565;-69
2021/01/18 03:50:45;;;;;;;16.60;9.13;;;;;;;2.66;75.98;97310.56;5072383;28;20699;-70
2021/01/18 03:53:12;;;;;;;11.10;7.87;;;;;;;2.89;75.37;97311.66;5072186;28;20194;-70
2021/01/18 03:55:38;;;;;;;13.67;8.73;;;;;;;2.87;75.11;97313.53;5072555;28;20179;-70
2021/01/18 03:58:04;;;;;;;12.10;8.60;;;;;;;3.06;74.06;97307.09;5063780;28;20478;-70
2021/01/18 04:00:32;;;;;;;14.90;8.97;;;;;;;2.88;74.62;97310.00;5072201;28;20842;-70
2021/01/18 04:02:58;;;;;;;16.27;8.63;;;;;;;2.95;74.43;97307.84;5068668;28;20481;-69
2021/01/18 04:05:24;;;;;;;16.20;8.93;;;;;;;2.98;73.94;97304.22;5065580;28;20429;-69
2021/01/18 04:07:51;;;;;;;12.27;8.10;;;;;;;2.99;74.02;97303.28;5054597;28;20421;-69
2021/01/18 04:10:20;;;;;;;15.10;9.50;;;;;;;2.98;74.21;97309.38;5070446;28;20425;-69
2021/01/18 04:12:46;;;;;;;17.17;9.27;;;;;;;3.15;73.59;97310.84;5064242;28;20499;-69
2021/01/18 04:15:14;;;;;;;16.40;9.13;;;;;;;2.77;74.61;97307.28;5072078;28;20482;-69
2021/01/18 04:17:44;;;;;;;17.10;9.10;;;;;;;2.91;74.33;97304.59;5072061;28;20441;-69
2021/01/18 04:20:10;;;;;;;15.50;9.97;;;;;;;2.70;74.33;97311.19;5071548;28;20452;-70
2021/01/18 04:22:37;;;;;;;12.90;9.13;;;;;;;2.87;73.97;97313.53;5072302;28;20484;-69
2021/01/18 04:25:04;;;;;;;16.77;9.90;;;;;;;2.68;74.28;97318.22;5071657;28;20447;-69
2021/01/18 04:27:30;;;;;;;12.37;8.40;;;;;;;2.74;73.79;97318.66;5070292;28;20440;-70
2021/01/18 04:29:55;;;;;;;15.90;8.97;;;;;;;2.88;73.95;97322.94;5071645;28;20450;-69
2021/01/18 04:32:21;;;;;;;16.40;9.30;;;;;;;2.76;73.41;97331.53;5071761;28;20440;-69
2021/01/18 04:34:47;;;;;;;15.33;8.40;;;;;;;2.74;73.75;97330.78;5054615;28;20262;-69
2021/01/18 04:37:13;;;;;;;17.27;9.63;;;;;;;2.73;73.71;97329.13;5067275;28;20655;-69
2021/01/18 04:39:39;;;;;;;16.53;9.17;;;;;;;2.89;72.94;97334.13;5056880;28;20205;-68
2021/01/18 04:42:05;;;;;;;13.90;8.73;;;;;;;3.03;72.62;97338.38;5050725;28;20194;-68
2021/01/18 04:44:31;;;;;;;12.73;8.77;;;;;;;2.81;72.94;97329.44;5050343;28;20425;-69
2021/01/18 04:46:56;;;;;;;13.70;9.20;;;;;;;2.65;73.76;97337.38;5050160;28;20879;-69
2021/01/18 04:49:23;;;;;;;17.73;8.97;;;;;;;2.96;72.81;97331.97;5052067;28;20425;-68
2021/01/18 04:51:52;;;;;;;27.57;9.33;;;;;;;2.96;72.15;97337.13;5053049;28;20195;-69
2021/01/18 04:54:20;;;;;;;18.40;9.33;;;;;;;3.02;72.22;97336.75;5071235;28;20421;-70
2021/01/18 04:57:14;;;;;;;18.87;8.57;;;;;;;2.71;73.11;97338.75;5054640;28;20425;-70
2021/01/18 04:59:47;;;;;;;22.17;8.57;;;;;;;2.88;73.33;97343.66;5054323;28;20453;-70
2021/01/18 05:02:19;;;;;;;15.93;9.00;;;;;;;3.30;71.00;97334.88;5044773;28;20499;-69
2021/01/18 05:04:47;;;;;;;15.10;8.90;;;;;;;3.50;70.29;97336.97;5048108;28;20997;-69
2021/01/18 05:07:12;;;;;;;11.67;8.50;;;;;;;2.99;71.29;97348.13;5055477;28;20421;-71
2021/01/18 05:09:42;;;;;;;17.10;8.40;;;;;;;2.90;71.78;97343.53;5054091;28;20433;-70
2021/01/18 05:12:10;;;;;;;18.73;10.20;;;;;;;2.81;71.53;97341.56;5053570;28;20214;-69
2021/01/18 05:14:36;;;;;;;11.53;7.40;;;;;;;2.98;71.37;97348.22;5061491;28;20426;-70
2021/01/18 05:17:07;;;;;;;19.80;8.20;;;;;;;3.06;70.66;97344.22;5049889;28;20426;-70
2021/01/18 05:19:33;;;;;;;11.47;7.90;;;;;;;3.11;70.41;97346.50;5051133;28;20409;-70
2021/01/18 05:21:58;;;;;;;15.70;7.20;;;;;;;2.89;71.43;97347.91;5059195;28;21005;-69
2021/01/18 05:24:24;;;;;;;10.80;7.90;;;;;;;2.92;71.03;97349.47;5063684;28;20681;-69
2021/01/18 05:27:03;;;;;;;15.83;7.90;;;;;;;3.00;70.87;97354.13;5063791;28;20178;-70
2021/01/18 05:29:33;;;;;;;13.53;7.07;;;;;;;2.89;71.01;97353.09;5059812;28;20738;-70
2021/01/18 05:31:59;;;;;;;14.90;6.90;;;;;;;2.77;71.31;97356.47;5054460;28;20453;-70
2021/01/18 05:34:28;;;;;;;12.33;6.23;;;;;;;2.86;70.83;97361.06;5051558;28;20933;-69
2021/01/18 05:36:55;;;;;;;7.90;6.03;;;;;;;3.07;69.11;97353.63;5070685;28;20445;-69
2021/01/18 05:39:41;;;;;;;19.83;6.40;;;;;;;3.21;69.42;97364.84;5066215;28;20457;-68
2021/01/18 05:42:21;;;;;;;14.07;6.77;;;;;;;3.16;69.31;97362.53;5062600;28;20464;-70
2021/01/18 05:44:47;;;;;;;13.60;7.23;;;;;;;3.14;69.00;97369.59;5068875;28;20432;-70
2021/01/18 05:47:15;;;;;;;11.10;7.13;;;;;;;3.17;69.13;97366.78;5068777;28;20445;-71
2021/01/18 05:49:46;;;;;;;12.13;7.00;;;;;;;3.10;69.50;97375.91;5053680;28;20936;-70
2021/01/18 05:52:25;;;;;;;13.27;7.10;;;;;;;3.27;69.13;97376.56;5057222;28;20852;-69
2021/01/18 05:54:50;;;;;;;10.37;6.17;;;;;;;3.01;69.51;97376.53;5055412;28;20426;-69
2021/01/18 05:57:17;;;;;;;21.10;8.53;;;;;;;3.19;69.61;97379.66;5053998;28;20491;-71
2021/01/18 05:59:43;;;;;;;16.77;9.00;;;;;;;3.15;69.50;97385.97;5053146;28;20187;-69
2021/01/18 06:02:09;;;;;;;13.67;8.47;;;;;;;3.31;69.09;97394.38;5052761;28;20472;-70
2021/01/18 06:04:35;;;;;;;15.90;7.77;;;;;;;3.29;69.34;97395.41;5050366;28;20184;-69
2021/01/18 06:07:03;;;;;;;18.40;8.40;;;;;;;3.35;69.39;97395.00;5053071;28;20517;-69
2021/01/18 06:09:45;;;;;;;18.37;8.27;;;;;;;3.48;68.85;97392.41;5062426;28;20425;-69
2021/01/18 06:12:26;;;;;;;14.93;8.67;;;;;;;3.62;68.40;97401.84;5048786;28;20448;-70
2021/01/18 06:15:14;;;;;;;17.33;9.70;;;;;;;3.70;68.38;97396.97;5062302;28;20448;-70
2021/01/18 06:17:51;;;;;;;16.90;9.40;;;;;;;3.68;68.17;97391.06;5054040;28;20861;-70
2021/01/18 06:20:27;;;;;;;14.13;8.43;;;;;;;3.30;68.70;97397.06;5046759;28;20512;-69
2021/01/18 06:22:58;;;;;;;17.80;8.13;;;;;;;2.84;70.30;97391.38;5055142;28;20489;-70
2021/01/18 06:25:25;;;;;;;15.20;8.40;;;;;;;2.86;70.56;97397.28;5060195;28;20429;-70
2021/01/18 06:27:51;;;;;;;11.87;8.57;;;;;;;2.84;70.22;97398.31;5053465;28;20511;-69
2021/01/18 06:30:28;;;;;;;18.77;7.60;;;;;;;2.48;71.31;97405.75;5053579;28;20932;-69
2021/01/18 06:33:01;;;;;;;18.90;6.80;;;;;;;2.50;71.68;97409.06;5053791;28;20532;-70
2021/01/18 06:35:32;;;;;;;17.43;9.00;;;;;;;2.79;71.01;97408.97;5047861;28;20532;-71
2021/01/18 06:38:08;;;;;;;10.07;7.27;;;;;;;2.49;71.45;97416.91;5046810;28;20422;-70
2021/01/18 06:40:39;;;;;;;12.70;7.57;;;;;;;3.04;69.68;97410.81;5073580;28;20416;-70
2021/01/18 06:43:07;;;;;;;10.77;7.33;;;;;;;3.20;69.30;97418.41;5073368;28;20460;-69
2021/01/18 06:45:37;;;;;;;19.20;9.17;;;;;;;3.29;68.51;97423.88;5070772;28;20464;-69
2021/01/18 06:48:05;;;;;;;17.40;7.67;;;;;;;2.98;68.97;97418.16;5076644;28;20496;-69
2021/01/18 06:50:33;;;;;;;11.60;6.57;;;;;;;3.28;68.45;97417.03;5085667;28;20448;-71
2021/01/18 06:53:14;;;;;;;12.77;6.90;;;;;;;2.98;68.81;97420.72;5074421;28;20433;-72
2021/01/18 06:55:48;;;;;;;11.60;7.10;;;;;;;3.21;68.24;97422.66;5072422;28;20416;-70
2021/01/18 06:58:26;;;;;;;9.83;6.00;;;;;;;3.34;67.71;97424.44;5067930;28;20431;-69
2021/01/18 07:00:57;;;;;;;12.17;6.60;;;;;;;2.64;69.84;97422.91;5065965;28;20429;-67
2021/01/18 07:03:42;;;;;;;9.30;5.73;;;;;;;3.11;68.91;97431.97;5074301;28;20456;-70
2021/01/18 07:06:23;;;;;;;13.20;6.50;;;;;;;3.23;68.19;97438.94;5074920;28;20412;-69
2021/01/18 07:08:52;;;;;;;10.97;7.40;;;;;;;3.34;67.48;97439.97;5059849;28;20511;-68
2021/01/18 07:11:18;;;;;;;12.30;6.70;;;;;;;3.26;67.59;97434.47;5072973;28;20507;-69
2021/01/18 07:13:49;;;;;;;15.30;7.83;;;;;;;3.03;68.53;97436.78;5073038;28;20554;-70
2021/01/18 07:16:17;;;;;;;14.33;6.27;;;;;;;2.83;69.59;97444.09;5065385;28;20450;-70
2021/01/18 07:18:45;;;;;;;12.43;6.27;;;;;;;3.03;69.16;97440.22;5064951;28;20428;-69
2021/01/18 07:21:18;;;;;;;12.03;6.10;;;;;;;2.81;69.76;97442.53;5056289;28;20417;-69
2021/01/18 07:23:52;;;;;;;10.80;5.70;;;;;;;2.70;69.74;97440.63;5064726;28;20460;-70
2021/01/18 07:26:43;;;;;;;9.50;5.70;;;;;;;3.15;69.10;97446.34;5073009;28;20462;-67
2021/01/18 07:29:09;;;;;;;9.77;5.60;;;;;;;2.68;70.49;97455.41;5055853;28;20446;-71
2021/01/18 07:31:36;;;;;;;11.43;5.93;;;;;;;2.92;69.86;97460.78;5063026;28;20446;-70
2021/01/18 07:34:03;;;;;;;7.03;5.63;;;;;;;3.18;68.92;97466.88;5057512;28;20285;-69
2021/01/18 07:36:30;;;;;;;9.37;5.83;;;;;;;3.16;68.88;97460.97;5060976;28;20435;-68
2021/01/18 07:38:57;;;;;;;12.60;6.10;;;;;;;2.80;69.91;97462.41;5050535;28;20495;-69
2021/01/18 07:41:36;;;;;;;8.63;5.63;;;;;;;3.01;69.10;97467.16;5048493;28;20429;-70
2021/01/18 07:44:02;;;;;;;12.70;5.30;;;;;;;2.61;70.60;97479.09;5052303;28;20480;-68
2021/01/18 07:46:28;;;;;;;9.27;5.23;;;;;;;3.15;69.12;97474.84;5048578;28;20418;-68
2021/01/18 07:48:58;;;;;;;15.33;5.57;;;;;;;3.35;68.31;97470.13;5045552;28;20978;-71
2021/01/18 07:51:27;;;;;;;8.83;5.87;;;;;;;3.30;68.49;97479.97;5055207;28;20217;-69
2021/01/18 07:53:53;;;;;;;13.53;5.27;;;;;;;3.10;69.46;97473.47;5070282;28;20417;-69
2021/01/18 07:56:29;;;;;;;10.53;5.53;;;;;;;3.03;69.69;97480.81;5061547;28;20429;-69
2021/01/18 07:58:56;;;;;;;8.30;4.80;;;;;;;3.34;68.63;97481.44;5070953;28;20452;-68
2021/01/18 08:01:27;;;;;;;7.43;4.77;;;;;;;3.00;69.74;97487.03;5071302;28;20794;-69
2021/01/18 08:03:53;;;;;;;11.47;5.57;;;;;;;3.22;69.34;97488.22;5070745;28;20464;-68
2021/01/18 08:06:20;;;;;;;8.83;5.90;;;;;;;3.36;68.74;97489.94;5067540;28;20421;-69
2021/01/18 08:08:46;;;;;;;14.97;5.60;;;;;;;3.28;69.19;97497.34;5056629;28;20455;-67
2021/01/18 08:11:16;;;;;;;8.70;5.33;;;;;;;3.47;68.13;97495.25;5064053;28;20519;-68
2021/01/18 08:13:53;;;;;;;9.73;5.37;;;;;;;3.37;68.15;97486.41;5064514;28;20428;-70
2021/01/18 08:16:30;;;;;;;10.80;5.90;;;;;;;3.74;67.28;97485.72;5058422;28;20417;-69
2021/01/18 08:18:56;;;;;;;12.20;5.87;;;;;;;3.68;67.78;97492.16;5071167;28;20428;-70
2021/01/18 08:21:43;;;;;;;10.60;6.40;;;;;;;3.78;66.99;97484.59;5072139;28;20477;-70
2021/01/18 08:24:16;;;;;;;11.67;5.27;;;;;;;3.69;66.85;97489.50;5055421;28;20605;-68
2021/01/18 08:27:07;;;;;;;9.77;5.37;;;;;;;3.71;67.49;97489.38;5072127;28;20421;-69
2021/01/18 08:29:48;;;;;;;10.13;5.30;;;;;;;3.48;67.83;97491.72;5062863;28;20435;-69
2021/01/18 08:32:23;;;;;;;12.50;5.50;;;;;;;3.86;67.72;97492.69;5057154;28;20429;-70
2021/01/18 08:34:51;;;;;;;8.93;5.00;;;;;;;3.95;67.09;97499.03;5071988;28;20416;-69
2021/01/18 08:37:17;;;;;;;8.53;5.40;;;;;;;3.61;67.29;97491.72;5067332;28;20452;-71
2021/01/18 08:39:51;;;;;;;10.23;6.27;;;;;;;3.34;68.63;97492.59;5064208;28;20475;-70
2021/01/18 08:42:25;;;;;;;6.40;5.30;;;;;;;3.70;68.30;97492.91;5058263;28;20459;-69
2021/01/18 08:45:11;;;;;;;9.40;6.60;;;;;;;3.66;68.07;97491.44;5072148;28;20440;-69
2021/01/18 08:47:47;;;;;;;7.13;4.90;;;;;;;3.88;67.43;97490.00;5069109;28;20454;-69
2021/01/18 08:50:20;;;;;;;11.20;5.80;;;;;;;3.77;67.75;97494.16;5056163;28;20459;-69
2021/01/18 08:52:54;;;;;;;7.63;5.37;;;;;;;4.12;66.81;97496.13;5071027;28;20436;-70
2021/01/18 08:55:29;;;;;;;9.03;5.10;;;;;;;4.23;66.25;97499.75;5066900;28;20420;-69
2021/01/18 08:57:58;;;;;;;7.67;5.67;;;;;;;4.05;66.53;97504.44;5073186;28;20424;-69
2021/01/18 09:00:48;;;;;;;11.90;5.83;;;;;;;4.17;66.82;97502.75;5074244;28;20413;-69
2021/01/18 09:03:18;;;;;;;11.43;6.17;;;;;;;4.08;66.89;97509.41;5060321;28;20513;-68
2021/01/18 09:05:48;;;;;;;7.27;5.60;;;;;;;4.17;66.85;97508.78;5075201;28;20454;-69
2021/01/18 09:08:17;;;;;;;9.10;6.00;;;;;;;4.11;67.16;97506.59;5068694;28;20459;-70
2021/01/18 09:10:52;;;;;;;13.67;6.10;;;;;;;4.00;66.46;97513.34;5065888;28;20465;-70
2021/01/18 09:13:20;;;;;;;12.43;6.27;;;;;;;3.84;68.05;97510.97;5061150;28;20444;-69
2021/01/18 09:15:46;;;;;;;7.63;5.10;;;;;;;3.38;69.62;97501.84;5074905;28;20452;-69
2021/01/18 09:18:12;;;;;;;10.00;6.03;;;;;;;3.34;70.59;97508.16;5067018;28;21339;-68
2021/01/18 09:20:40;;;;;;;8.13;5.57;;;;;;;3.40;69.62;97512.16;5067042;28;20254;-68
2021/01/18 09:23:10;;;;;;;12.33;6.63;;;;;;;3.57;69.92;97507.59;5073893;28;20452;-68
2021/01/18 09:25:36;;;;;;;17.27;6.93;;;;;;;3.77;69.39;97509.72;5074929;28;20425;-68
2021/01/18 09:28:10;;;;;;;13.90;5.97;;;;;;;3.47;70.22;97510.78;5074664;28;20796;-68
2021/01/18 09:30:37;;;;;;;10.03;6.03;;;;;;;3.92;69.77;97513.03;5067984;28;20492;-68
2021/01/18 09:33:06;;;;;;;10.70;6.37;;;;;;;3.47;71.04;97515.97;5073708;28;20511;-69
2021/01/18 09:35:37;;;;;;;8.87;5.53;;;;;;;3.87;69.94;97519.47;5074642;28;20424;-69
2021/01/18 09:38:04;;;;;;;8.83;5.90;;;;;;;3.90;69.62;97535.66;5062097;28;20433;-70
2021/01/18 09:40:30;;;;;;;9.90;5.70;;;;;;;3.83;69.52;97524.84;5073744;28;20499;-69
2021/01/18 09:42:57;;;;;;;9.43;5.70;;;;;;;3.80;70.08;97525.03;5064383;28;20465;-69
2021/01/18 09:45:25;;;;;;;7.23;6.00;;;;;;;4.18;68.99;97527.75;5068455;28;20492;-68
2021/01/18 09:47:53;;;;;;;12.73;6.87;;;;;;;4.06;68.72;97527.66;5073596;28;20448;-69
2021/01/18 09:50:20;;;;;;;8.60;4.77;;;;;;;4.65;67.95;97523.69;5065288;28;20424;-69
2021/01/18 09:52:49;;;;;;;11.70;5.63;;;;;;;4.87;66.51;97529.97;5056176;28;20449;-68
2021/01/18 09:55:31;;;;;;;11.37;5.90;;;;;;;4.92;66.41;97514.84;5074258;28;20428;-69
2021/01/18 09:57:56;;;;;;;8.00;5.20;;;;;;;4.27;67.33;97521.97;5058151;28;20431;-70
2021/01/18 10:00:26;;;;;;;5.70;4.87;;;;;;;4.56;67.35;97529.50;5053033;28;20414;-68
2021/01/18 10:02:53;;;;;;;9.70;5.60;;;;;;;4.74;66.66;97525.63;5054564;28;20212;-68
2021/01/18 10:05:31;;;;;;;10.70;5.40;;;;;;;4.96;66.09;97498.13;5047090;28;20424;-68
2021/01/18 10:07:58;;;;;;;11.53;5.20;;;;;;;5.12;65.43;97507.41;5050659;28;20472;-70
2021/01/18 10:10:24;;;;;;;10.57;5.37;;;;;;;5.19;65.28;97503.44;5074410;28;20796;-68
2021/01/18 10:12:52;;;;;;;12.80;5.97;;;;;;;5.34;65.45;97507.53;5067096;28;20434;-69
2021/01/18 10:15:24;;;;;;;7.70;5.90;;;;;;;5.53;64.36;97493.19;5046531;28;20273;-69
2021/01/18 10:17:49;;;;;;;7.60;5.33;;;;;;;4.25;68.12;97496.09;5049541;28;20421;-68
2021/01/18 10:20:21;;;;;;;7.17;5.27;;;;;;;5.13;65.45;97496.09;5049742;28;20429;-67
2021/01/18 10:22:47;;;;;;;8.73;5.70;;;;;;;4.47;67.86;97486.84;5063286;28;20889;-68
2021/01/18 10:25:13;;;;;;;9.73;5.50;;;;;;;4.27;69.05;97486.47;5073982;28;20448;-68
2021/01/18 10:27:49;;;;;;;8.40;5.00;;;;;;;3.98;68.55;97491.03;5073587;28;20182;-68
2021/01/18 10:30:19;;;;;;;16.00;5.30;;;;;;;4.59;67.23;97485.16;5057021;28;20429;-68
2021/01/18 10:32:50;;;;;;;8.50;6.07;;;;;;;4.38;68.71;97483.13;5072290;28;20441;-67
2021/01/18 10:35:37;;;;;;;9.33;5.60;;;;;;;5.14;66.26;97475.19;5056626;28;20425;-67
2021/01/18 10:38:29;;;;;;;9.73;5.40;;;;;;;4.86;66.16;97468.56;5050896;28;20425;-69
2021/01/18 10:41:06;;;;;;;5.83;5.10;;;;;;;4.66;67.03;97470.81;5052961;28;20427;-68
2021/01/18 10:43:32;;;;;;;9.40;4.87;;;;;;;4.52;68.16;97478.75;5048474;28;20838;-69
2021/01/18 10:45:58;;;;;;;8.57;5.20;;;;;;;5.47;64.82;97467.63;5052062;28;20791;-67
2021/01/18 10:48:28;;;;;;;9.20;5.73;;;;;;;5.32;64.89;97462.63;5073204;28;20436;-68
2021/01/18 10:51:02;;;;;;;6.27;4.63;;;;;;;5.78;63.82;97457.53;5074348;28;20416;-69
2021/01/18 10:53:29;;;;;;;13.03;5.20;;;;;;;6.04;62.57;97467.78;5078266;28;20498;-67
2021/01/18 10:56:15;;;;;;;9.30;5.67;;;;;;;6.13;61.75;97462.66;5070892;28;20639;-67
2021/01/18 10:58:44;;;;;;;7.07;4.57;;;;;;;5.14;64.15;97471.78;5062148;28;20853;-69
2021/01/18 11:01:11;;;;;;;6.17;4.63;;;;;;;5.10;65.04;97473.75;5059893;28;20490;-69
2021/01/18 11:03:38;;;;;;;8.37;5.83;;;;;;;4.81;66.79;97474.09;5069194;28;20581;-68
2021/01/18 11:06:11;;;;;;;26.90;6.00;;;;;;;5.15;65.40;97476.03;5065403;28;20413;-67
2021/01/18 11:08:37;;;;;;;12.10;4.67;;;;;;;5.15;64.70;97478.63;5060501;28;20508;-67
2021/01/18 11:11:16;;;;;;;5.77;4.63;;;;;;;5.07;65.53;97479.19;5052435;28;20544;-69
2021/01/18 11:13:42;;;;;;;11.87;6.20;;;;;;;4.72;67.37;97467.78;5054634;28;20241;-69
2021/01/18 11:16:11;;;;;;;8.30;5.13;;;;;;;4.91;65.93;97472.47;5054853;28;20445;-67
2021/01/18 11:18:37;;;;;;;8.00;5.77;;;;;;;5.00;66.09;97472.75;5049925;28;20262;-68
2021/01/18 11:21:03;;;;;;;7.27;5.20;;;;;;;4.92;65.95;97465.50;5058896;28;20563;-69
2021/01/18 11:23:29;;;;;;;9.67;5.80;;;;;;;5.37;65.31;97468.31;5072108;28;20321;-68
2021/01/18 11:25:55;;;;;;;18.73;9.93;;;;;;;4.73;66.24;97463.41;5072544;28;20460;-69
2021/01/18 11:28:20;;;;;;;8.60;5.40;;;;;;;4.60;67.94;97458.25;5071891;28;20262;-69
2021/01/18 11:30:46;;;;;;;8.37;5.47;;;;;;;4.44;67.49;97467.13;5071667;28;20186;-68
2021/01/18 11:33:12;;;;;;;8.93;5.60;;;;;;;4.83;66.38;97456.63;5046292;28;20197;-67
2021/01/18 11:35:39;;;;;;;9.97;6.13;;;;;;;4.47;68.21;97447.94;5049348;28;20661;-68
2021/01/18 11:38:05;;;;;;;12.30;5.80;;;;;;;4.94;66.47;97447.22;5047902;28;20185;-68
2021/01/18 11:40:30;;;;;;;6.70;4.97;;;;;;;4.91;66.52;97448.28;5043994;28;20418;-68
2021/01/18 11:42:57;;;;;;;12.73;6.73;;;;;;;4.72;67.39;97443.59;5045650;28;20473;-68
2021/01/18 11:45:23;;;;;;;9.87;5.67;;;;;;;5.20;65.64;97453.13;5043858;28;20186;-68
2021/01/18 11:47:49;;;;;;;10.00;6.07;;;;;;;4.89;65.97;97447.56;5059952;28;20917;-68
2021/01/18 11:50:15;;;;;;;8.43;5.67;;;;;;;5.32;64.58;97448.81;5061524;28;20280;-68
2021/01/18 11:52:45;;;;;;;10.93;5.50;;;;;;;4.72;66.47;97438.41;5071515;28;20585;-68